sensor_id;sensor_type;location;lat;lon;timestamp;P1;durP1;ratioP1;P2;durP2;ratioP2
67595;SDS011;54410;48.694;8.934;2024-01-27T00:00:12;6.40;;;5.63;;
67595;SDS011;54410;48.694;8.934;2024-01-27T00:02:39;6.70;;;6.10;;
67595;SDS011;54410;48.694;8.934;2024-01-27T00:05:05;7.20;;;5.93;;
67595;SDS011;54410;48.694;8.934;2024-01-27T00:07:31;6.20;;;5.60;;
67595;SDS011;54410;48.694;8.934;2024-01-27T00:09:57;8.13;;;5.97;;
67595;SDS011;54410;48.694;8.934;2024-01-27T00:12:24;7.20;;;6.50;;
67595;SDS011;54410;48.694;8.934;2024-01-27T00:14:50;8.10;;;6.13;;
67595;SDS011;54410;48.694;8.934;2024-01-27T00:17:16;12.00;;;7.27;;
67595;SDS011;54410;48.694;8.934;2024-01-27T00:19:42;11.87;;;7.17;;
67595;SDS011;54410;48.694;8.934;2024-01-27T00:22:08;10.40;;;7.20;;
67595;SDS011;54410;48.694;8.934;2024-01-27T00:24:34;9.53;;;7.60;;
67595;SDS011;54410;48.694;8.934;2024-01-27T00:27:00;13.00;;;8.40;;
67595;SDS011;54410;48.694;8.934;2024-01-27T00:29:26;13.17;;;9.80;;
67595;SDS011;54410;48.694;8.934;2024-01-27T00:31:52;14.13;;;9.47;;
67595;SDS011;54410;48.694;8.934;2024-01-27T00:34:19;12.83;;;8.97;;
67595;SDS011;54410;48.694;8.934;2024-01-27T00:36:46;12.97;;;8.97;;
67595;SDS011;54410;48.694;8.934;2024-01-27T00:39:17;9.90;;;8.83;;
67595;SDS011;54410;48.694;8.934;2024-01-27T00:41:43;14.37;;;6.93;;
67595;SDS011;54410;48.694;8.934;2024-01-27T00:44:09;6.87;;;6.10;;
67595;SDS011;54410;48.694;8.934;2024-01-27T00:46:39;9.77;;;5.87;;
67595;SDS011;54410;48.694;8.934;2024-01-27T00:49:05;7.33;;;5.90;;
67595;SDS011;54410;48.694;8.934;2024-01-27T00:51:32;7.67;;;5.57;;
67595;SDS011;54410;48.694;8.934;2024-01-27T00:53:58;5.70;;;4.63;;
67595;SDS011;54410;48.694;8.934;2024-01-27T00:56:24;6.77;;;5.40;;
67595;SDS011;54410;48.694;8.934;2024-01-27T00:58:50;6.23;;;4.60;;
67595;SDS011;54410;48.694;8.934;2024-01-27T01:01:15;7.40;;;5.00;;
67595;SDS011;54410;48.694;8.934;2024-01-27T01:03:41;6.43;;;5.20;;
67595;SDS011;54410;48.694;8.934;2024-01-27T01:06:07;8.67;;;5.47;;
67595;SDS011;54410;48.694;8.934;2024-01-27T01:08:33;7.63;;;5.37;;
67595;SDS011;54410;48.694;8.934;2024-01-27T01:10:59;7.30;;;4.80;;
67595;SDS011;54410;48.694;8.934;2024-01-27T01:13:25;7.17;;;5.10;;
67595;SDS011;54410;48.694;8.934;2024-01-27T01:15:51;7.77;;;4.80;;
67595;SDS011;54410;48.694;8.934;2024-01-27T01:18:17;9.27;;;5.50;;
67595;SDS011;54410;48.694;8.934;2024-01-27T01:20:43;6.57;;;4.43;;
67595;SDS011;54410;48.694;8.934;2024-01-27T01:23:08;7.73;;;4.63;;
67595;SDS011;54410;48.694;8.934;2024-01-27T01:25:34;7.40;;;4.70;;
67595;SDS011;54410;48.694;8.934;2024-01-27T01:28:00;7.13;;;4.90;;
67595;SDS011;54410;48.694;8.934;2024-01-27T01:30:26;6.90;;;4.93;;
67595;SDS011;54410;48.694;8.934;2024-01-27T01:32:52;6.70;;;5.67;;
67595;SDS011;54410;48.694;8.934;2024-01-27T01:35:18;11.83;;;5.83;;
67595;SDS011;54410;48.694;8.934;2024-01-27T01:37:44;11.47;;;7.20;;
67595;SDS011;54410;48.694;8.934;2024-01-27T01:40:10;11.90;;;6.83;;
67595;SDS011;54410;48.694;8.934;2024-01-27T01:42:37;10.50;;;7.00;;
67595;SDS011;54410;48.694;8.934;2024-01-27T01:45:03;16.23;;;8.70;;
67595;SDS011;54410;48.694;8.934;2024-01-27T01:47:29;15.80;;;8.40;;
67595;SDS011;54410;48.694;8.934;2024-01-27T01:49:55;10.03;;;7.27;;
67595;SDS011;54410;48.694;8.934;2024-01-27T01:52:21;12.43;;;7.67;;
67595;SDS011;54410;48.694;8.934;2024-01-27T01:54:50;12.97;;;8.13;;
67595;SDS011;54410;48.694;8.934;2024-01-27T01:57:16;13.40;;;8.10;;
67595;SDS011;54410;48.694;8.934;2024-01-27T01:59:43;11.17;;;7.80;;
67595;SDS011;54410;48.694;8.934;2024-01-27T02:02:09;12.93;;;7.97;;
67595;SDS011;54410;48.694;8.934;2024-01-27T02:04:44;10.10;;;8.17;;
67595;SDS011;54410;48.694;8.934;2024-01-27T02:07:13;10.80;;;8.33;;
67595;SDS011;54410;48.694;8.934;2024-01-27T02:09:40;13.17;;;8.23;;
67595;SDS011;54410;48.694;8.934;2024-01-27T02:12:06;12.20;;;7.47;;
67595;SDS011;54410;48.694;8.934;2024-01-27T02:14:32;12.57;;;7.93;;
67595;SDS011;54410;48.694;8.934;2024-01-27T02:16:58;13.53;;;8.93;;
67595;SDS011;54410;48.694;8.934;2024-01-27T02:19:24;11.27;;;7.90;;
67595;SDS011;54410;48.694;8.934;2024-01-27T02:21:49;13.60;;;8.77;;
67595;SDS011;54410;48.694;8.934;2024-01-27T02:24:15;9.23;;;6.33;;
67595;SDS011;54410;48.694;8.934;2024-01-27T02:26:41;12.87;;;6.33;;
67595;SDS011;54410;48.694;8.934;2024-01-27T02:29:07;13.47;;;7.77;;
67595;SDS011;54410;48.694;8.934;2024-01-27T02:31:33;14.80;;;8.70;;
67595;SDS011;54410;48.694;8.934;2024-01-27T02:33:59;19.40;;;10.03;;
67595;SDS011;54410;48.694;8.934;2024-01-27T02:36:25;17.37;;;10.30;;
67595;SDS011;54410;48.694;8.934;2024-01-27T02:38:51;12.00;;;9.67;;
67595;SDS011;54410;48.694;8.934;2024-01-27T02:41:17;17.50;;;9.80;;
67595;SDS011;54410;48.694;8.934;2024-01-27T02:43:43;12.57;;;8.93;;
67595;SDS011;54410;48.694;8.934;2024-01-27T02:46:12;15.33;;;8.23;;
67595;SDS011;54410;48.694;8.934;2024-01-27T02:48:40;11.93;;;8.13;;
67595;SDS011;54410;48.694;8.934;2024-01-27T02:51:07;16.27;;;8.93;;
67595;SDS011;54410;48.694;8.934;2024-01-27T02:53:33;18.47;;;9.30;;
67595;SDS011;54410;48.694;8.934;2024-01-27T02:55:59;13.77;;;8.87;;
67595;SDS011;54410;48.694;8.934;2024-01-27T02:58:24;15.20;;;9.47;;
67595;SDS011;54410;48.694;8.934;2024-01-27T03:00:50;15.90;;;9.57;;
67595;SDS011;54410;48.694;8.934;2024-01-27T03:03:16;15.00;;;8.50;;
67595;SDS011;54410;48.694;8.934;2024-01-27T03:05:42;14.77;;;7.03;;
67595;SDS011;54410;48.694;8.934;2024-01-27T03:08:08;10.57;;;7.30;;
67595;SDS011;54410;48.694;8.934;2024-01-27T03:10:34;12.33;;;8.23;;
67595;SDS011;54410;48.694;8.934;2024-01-27T03:13:00;12.37;;;7.70;;
67595;SDS011;54410;48.694;8.934;2024-01-27T03:15:26;10.23;;;7.77;;
67595;SDS011;54410;48.694;8.934;2024-01-27T03:17:52;14.73;;;7.23;;
67595;SDS011;54410;48.694;8.934;2024-01-27T03:20:18;12.60;;;6.63;;
67595;SDS011;54410;48.694;8.934;2024-01-27T03:22:44;13.47;;;7.73;;
67595;SDS011;54410;48.694;8.934;2024-01-27T03:25:10;13.07;;;7.03;;
67595;SDS011;54410;48.694;8.934;2024-01-27T03:27:36;13.00;;;7.53;;
67595;SDS011;54410;48.694;8.934;2024-01-27T03:30:02;9.67;;;6.03;;
67595;SDS011;54410;48.694;8.934;2024-01-27T03:32:28;11.00;;;6.43;;
67595;SDS011;54410;48.694;8.934;2024-01-27T03:34:57;8.87;;;5.83;;
67595;SDS011;54410;48.694;8.934;2024-01-27T03:37:23;10.73;;;4.87;;
67595;SDS011;54410;48.694;8.934;2024-01-27T03:39:49;8.40;;;5.27;;
67595;SDS011;54410;48.694;8.934;2024-01-27T03:42:15;9.07;;;5.53;;
67595;SDS011;54410;48.694;8.934;2024-01-27T03:44:41;10.17;;;5.93;;
67595;SDS011;54410;48.694;8.934;2024-01-27T03:47:06;8.30;;;5.20;;
67595;SDS011;54410;48.694;8.934;2024-01-27T03:49:32;7.60;;;5.87;;
67595;SDS011;54410;48.694;8.934;2024-01-27T03:51:58;6.67;;;5.70;;
67595;SDS011;54410;48.694;8.934;2024-01-27T03:54:24;9.10;;;5.80;;
67595;SDS011;54410;48.694;8.934;2024-01-27T03:56:50;9.37;;;5.20;;
67595;SDS011;54410;48.694;8.934;2024-01-27T03:59:16;9.43;;;6.33;;
67595;SDS011;54410;48.694;8.934;2024-01-27T04:01:42;7.40;;;5.90;;
67595;SDS011;54410;48.694;8.934;2024-01-27T04:04:08;8.83;;;6.50;;
67595;SDS011;54410;48.694;8.934;2024-01-27T04:06:38;9.13;;;6.23;;
67595;SDS011;54410;48.694;8.934;2024-01-27T04:09:04;6.23;;;5.67;;
67595;SDS011;54410;48.694;8.934;2024-01-27T04:11:33;9.60;;;5.77;;
67595;SDS011;54410;48.694;8.934;2024-01-27T04:14:01;10.50;;;6.50;;
67595;SDS011;54410;48.694;8.934;2024-01-27T04:16:27;8.90;;;5.67;;
67595;SDS011;54410;48.694;8.934;2024-01-27T04:18:53;14.10;;;6.20;;
67595;SDS011;54410;48.694;8.934;2024-01-27T04:21:19;9.37;;;6.40;;
67595;SDS011;54410;48.694;8.934;2024-01-27T04:23:45;11.30;;;6.03;;
67595;SDS011;54410;48.694;8.934;2024-01-27T04:26:11;10.57;;;5.93;;
67595;SDS011;54410;48.694;8.934;2024-01-27T04:28:37;6.90;;;5.83;;
67595;SDS011;54410;48.694;8.934;2024-01-27T04:31:03;7.63;;;5.00;;
67595;SDS011;54410;48.694;8.934;2024-01-27T04:33:29;6.43;;;5.20;;
67595;SDS011;54410;48.694;8.934;2024-01-27T04:35:54;7.53;;;5.73;;
67595;SDS011;54410;48.694;8.934;2024-01-27T04:38:20;6.23;;;5.63;;
67595;SDS011;54410;48.694;8.934;2024-01-27T04:40:46;9.00;;;6.33;;
67595;SDS011;54410;48.694;8.934;2024-01-27T04:43:16;9.47;;;6.33;;
67595;SDS011;54410;48.694;8.934;2024-01-27T04:45:42;8.43;;;5.50;;
67595;SDS011;54410;48.694;8.934;2024-01-27T04:48:08;11.77;;;6.57;;
67595;SDS011;54410;48.694;8.934;2024-01-27T04:50:34;7.50;;;6.13;;
67595;SDS011;54410;48.694;8.934;2024-01-27T04:53:00;8.10;;;7.20;;
67595;SDS011;54410;48.694;8.934;2024-01-27T04:55:26;10.20;;;6.67;;
67595;SDS011;54410;48.694;8.934;2024-01-27T04:57:52;12.17;;;6.13;;
67595;SDS011;54410;48.694;8.934;2024-01-27T05:00:18;10.33;;;6.87;;
67595;SDS011;54410;48.694;8.934;2024-01-27T05:02:44;14.20;;;7.23;;
67595;SDS011;54410;48.694;8.934;2024-01-27T05:05:10;11.20;;;7.00;;
67595;SDS011;54410;48.694;8.934;2024-01-27T05:07:37;14.20;;;7.07;;
67595;SDS011;54410;48.694;8.934;2024-01-27T05:10:03;12.77;;;8.30;;
67595;SDS011;54410;48.694;8.934;2024-01-27T05:12:29;10.03;;;7.33;;
67595;SDS011;54410;48.694;8.934;2024-01-27T05:14:55;13.37;;;7.43;;
67595;SDS011;54410;48.694;8.934;2024-01-27T05:17:21;9.03;;;7.87;;
67595;SDS011;54410;48.694;8.934;2024-01-27T05:19:46;10.53;;;7.10;;
67595;SDS011;54410;48.694;8.934;2024-01-27T05:22:12;9.73;;;7.90;;
67595;SDS011;54410;48.694;8.934;2024-01-27T05:24:38;12.37;;;8.83;;
67595;SDS011;54410;48.694;8.934;2024-01-27T05:27:04;9.80;;;8.80;;
67595;SDS011;54410;48.694;8.934;2024-01-27T05:29:30;8.20;;;7.20;;
67595;SDS011;54410;48.694;8.934;2024-01-27T05:31:56;9.23;;;7.50;;
67595;SDS011;54410;48.694;8.934;2024-01-27T05:34:22;10.03;;;7.20;;
67595;SDS011;54410;48.694;8.934;2024-01-27T05:36:48;9.43;;;7.17;;
67595;SDS011;54410;48.694;8.934;2024-01-27T05:39:14;9.43;;;6.60;;
67595;SDS011;54410;48.694;8.934;2024-01-27T05:41:40;9.47;;;6.57;;
67595;SDS011;54410;48.694;8.934;2024-01-27T05:44:06;13.50;;;6.40;;
67595;SDS011;54410;48.694;8.934;2024-01-27T05:46:32;12.67;;;7.30;;
67595;SDS011;54410;48.694;8.934;2024-01-27T05:48:58;10.63;;;7.17;;
67595;SDS011;54410;48.694;8.934;2024-01-27T05:51:28;10.87;;;7.37;;
67595;SDS011;54410;48.694;8.934;2024-01-27T05:53:55;12.10;;;7.53;;
67595;SDS011;54410;48.694;8.934;2024-01-27T05:56:20;14.57;;;6.87;;
67595;SDS011;54410;48.694;8.934;2024-01-27T05:58:47;11.87;;;6.50;;
67595;SDS011;54410;48.694;8.934;2024-01-27T06:01:13;7.97;;;6.60;;
67595;SDS011;54410;48.694;8.934;2024-01-27T06:03:42;7.77;;;6.93;;
67595;SDS011;54410;48.694;8.934;2024-01-27T06:06:08;7.87;;;6.83;;
67595;SDS011;54410;48.694;8.934;2024-01-27T06:08:34;8.20;;;7.23;;
67595;SDS011;54410;48.694;8.934;2024-01-27T06:11:00;10.30;;;6.77;;
67595;SDS011;54410;48.694;8.934;2024-01-27T06:13:28;8.33;;;7.03;;
67595;SDS011;54410;48.694;8.934;2024-01-27T06:15:53;8.37;;;6.90;;
67595;SDS011;54410;48.694;8.934;2024-01-27T06:18:19;9.37;;;7.10;;
67595;SDS011;54410;48.694;8.934;2024-01-27T06:20:45;7.17;;;6.40;;
67595;SDS011;54410;48.694;8.934;2024-01-27T06:23:11;7.10;;;6.37;;
67595;SDS011;54410;48.694;8.934;2024-01-27T06:25:37;10.40;;;6.60;;
67595;SDS011;54410;48.694;8.934;2024-01-27T06:28:03;8.67;;;6.50;;
67595;SDS011;54410;48.694;8.934;2024-01-27T06:30:29;10.27;;;6.40;;
67595;SDS011;54410;48.694;8.934;2024-01-27T06:32:55;11.10;;;6.40;;
67595;SDS011;54410;48.694;8.934;2024-01-27T06:35:21;10.60;;;6.60;;
67595;SDS011;54410;48.694;8.934;2024-01-27T06:37:47;11.07;;;6.97;;
67595;SDS011;54410;48.694;8.934;2024-01-27T06:40:15;12.57;;;7.20;;
67595;SDS011;54410;48.694;8.934;2024-01-27T06:42:41;9.17;;;7.50;;
67595;SDS011;54410;48.694;8.934;2024-01-27T06:45:06;12.60;;;7.83;;
67595;SDS011;54410;48.694;8.934;2024-01-27T06:47:32;13.03;;;8.43;;
67595;SDS011;54410;48.694;8.934;2024-01-27T06:49:58;11.63;;;7.90;;
67595;SDS011;54410;48.694;8.934;2024-01-27T06:52:24;8.90;;;7.97;;
67595;SDS011;54410;48.694;8.934;2024-01-27T06:54:50;13.03;;;8.13;;
67595;SDS011;54410;48.694;8.934;2024-01-27T06:57:20;13.47;;;7.97;;
67595;SDS011;54410;48.694;8.934;2024-01-27T06:59:47;15.93;;;8.20;;
67595;SDS011;54410;48.694;8.934;2024-01-27T07:02:17;12.67;;;8.63;;
67595;SDS011;54410;48.694;8.934;2024-01-27T07:04:43;13.83;;;8.40;;
67595;SDS011;54410;48.694;8.934;2024-01-27T07:07:09;15.37;;;8.40;;
67595;SDS011;54410;48.694;8.934;2024-01-27T07:09:35;13.60;;;8.00;;
67595;SDS011;54410;48.694;8.934;2024-01-27T07:12:01;13.20;;;9.33;;
67595;SDS011;54410;48.694;8.934;2024-01-27T07:14:27;14.73;;;8.40;;
67595;SDS011;54410;48.694;8.934;2024-01-27T07:16:53;12.30;;;8.93;;
67595;SDS011;54410;48.694;8.934;2024-01-27T07:19:19;19.53;;;9.40;;
67595;SDS011;54410;48.694;8.934;2024-01-27T07:21:45;16.10;;;8.03;;
67595;SDS011;54410;48.694;8.934;2024-01-27T07:24:11;17.20;;;9.33;;
67595;SDS011;54410;48.694;8.934;2024-01-27T07:26:37;13.03;;;9.37;;
67595;SDS011;54410;48.694;8.934;2024-01-27T07:29:03;15.90;;;8.90;;
67595;SDS011;54410;48.694;8.934;2024-01-27T07:31:29;13.90;;;9.30;;
67595;SDS011;54410;48.694;8.934;2024-01-27T07:33:56;10.17;;;7.70;;
67595;SDS011;54410;48.694;8.934;2024-01-27T07:36:21;13.93;;;7.93;;
67595;SDS011;54410;48.694;8.934;2024-01-27T07:38:48;11.43;;;7.50;;
67595;SDS011;54410;48.694;8.934;2024-01-27T07:41:13;16.13;;;11.47;;
67595;SDS011;54410;48.694;8.934;2024-01-27T07:43:39;18.93;;;12.73;;
67595;SDS011;54410;48.694;8.934;2024-01-27T07:46:05;17.57;;;11.57;;
67595;SDS011;54410;48.694;8.934;2024-01-27T07:48:31;13.27;;;9.37;;
67595;SDS011;54410;48.694;8.934;2024-01-27T07:50:57;12.47;;;9.03;;
67595;SDS011;54410;48.694;8.934;2024-01-27T07:53:24;13.23;;;9.33;;
67595;SDS011;54410;48.694;8.934;2024-01-27T07:55:50;15.80;;;10.40;;
67595;SDS011;54410;48.694;8.934;2024-01-27T07:58:18;13.27;;;9.50;;
67595;SDS011;54410;48.694;8.934;2024-01-27T08:00:44;12.17;;;9.07;;
67595;SDS011;54410;48.694;8.934;2024-01-27T08:03:10;17.33;;;9.17;;
67595;SDS011;54410;48.694;8.934;2024-01-27T08:05:36;14.17;;;8.73;;
67595;SDS011;54410;48.694;8.934;2024-01-27T08:08:03;12.67;;;9.00;;
67595;SDS011;54410;48.694;8.934;2024-01-27T08:10:29;13.13;;;8.00;;
67595;SDS011;54410;48.694;8.934;2024-01-27T08:12:55;17.00;;;8.70;;
67595;SDS011;54410;48.694;8.934;2024-01-27T08:15:21;18.40;;;11.90;;
67595;SDS011;54410;48.694;8.934;2024-01-27T08:17:47;19.10;;;11.43;;
67595;SDS011;54410;48.694;8.934;2024-01-27T08:20:13;27.63;;;17.13;;
67595;SDS011;54410;48.694;8.934;2024-01-27T08:22:39;24.27;;;13.70;;
67595;SDS011;54410;48.694;8.934;2024-01-27T08:25:05;19.43;;;12.07;;
67595;SDS011;54410;48.694;8.934;2024-01-27T08:27:31;17.90;;;12.10;;
67595;SDS011;54410;48.694;8.934;2024-01-27T08:29:57;15.53;;;12.43;;
67595;SDS011;54410;48.694;8.934;2024-01-27T08:32:23;15.80;;;11.67;;
67595;SDS011;54410;48.694;8.934;2024-01-27T08:34:49;11.93;;;8.80;;
67595;SDS011;54410;48.694;8.934;2024-01-27T08:37:17;7.43;;;6.60;;
67595;SDS011;54410;48.694;8.934;2024-01-27T08:39:43;9.20;;;6.93;;
67595;SDS011;54410;48.694;8.934;2024-01-27T08:42:09;6.80;;;5.20;;
67595;SDS011;54410;48.694;8.934;2024-01-27T08:44:36;5.53;;;4.97;;
67595;SDS011;54410;48.694;8.934;2024-01-27T08:47:02;5.80;;;4.78;;
67595;SDS011;54410;48.694;8.934;2024-01-27T08:49:28;5.38;;;4.85;;
67595;SDS011;54410;48.694;8.934;2024-01-27T08:51:53;5.15;;;4.32;;
67595;SDS011;54410;48.694;8.934;2024-01-27T08:54:20;5.10;;;4.60;;
67595;SDS011;54410;48.694;8.934;2024-01-27T08:56:46;5.28;;;4.60;;
67595;SDS011;54410;48.694;8.934;2024-01-27T08:59:12;4.00;;;3.67;;
67595;SDS011;54410;48.694;8.934;2024-01-27T09:01:37;4.47;;;3.17;;
67595;SDS011;54410;48.694;8.934;2024-01-27T09:04:03;5.13;;;3.10;;
67595;SDS011;54410;48.694;8.934;2024-01-27T09:06:29;8.13;;;4.53;;
67595;SDS011;54410;48.694;8.934;2024-01-27T09:08:55;7.65;;;4.95;;
67595;SDS011;54410;48.694;8.934;2024-01-27T09:11:21;13.27;;;9.10;;
67595;SDS011;54410;48.694;8.934;2024-01-27T09:13:48;4.40;;;3.72;;
67595;SDS011;54410;48.694;8.934;2024-01-27T09:16:16;4.57;;;4.05;;
67595;SDS011;54410;48.694;8.934;2024-01-27T09:18:42;5.28;;;3.78;;
67595;SDS011;54410;48.694;8.934;2024-01-27T09:21:08;9.60;;;5.45;;
67595;SDS011;54410;48.694;8.934;2024-01-27T09:23:34;5.40;;;4.10;;
67595;SDS011;54410;48.694;8.934;2024-01-27T09:26:00;6.07;;;3.90;;
67595;SDS011;54410;48.694;8.934;2024-01-27T09:28:26;6.35;;;4.00;;
67595;SDS011;54410;48.694;8.934;2024-01-27T09:30:52;8.18;;;4.40;;
67595;SDS011;54410;48.694;8.934;2024-01-27T09:33:18;9.43;;;5.65;;
67595;SDS011;54410;48.694;8.934;2024-01-27T09:35:47;6.40;;;4.40;;
67595;SDS011;54410;48.694;8.934;2024-01-27T09:38:14;8.85;;;6.30;;
67595;SDS011;54410;48.694;8.934;2024-01-27T09:40:40;5.13;;;4.65;;
67595;SDS011;54410;48.694;8.934;2024-01-27T09:43:06;4.78;;;4.28;;
67595;SDS011;54410;48.694;8.934;2024-01-27T09:45:34;6.20;;;4.60;;
67595;SDS011;54410;48.694;8.934;2024-01-27T09:48:01;7.95;;;4.57;;
67595;SDS011;54410;48.694;8.934;2024-01-27T09:50:29;6.85;;;4.80;;
67595;SDS011;54410;48.694;8.934;2024-01-27T09:52:55;6.75;;;5.28;;
67595;SDS011;54410;48.694;8.934;2024-01-27T09:55:21;6.30;;;4.82;;
67595;SDS011;54410;48.694;8.934;2024-01-27T09:57:47;8.75;;;5.05;;
67595;SDS011;54410;48.694;8.934;2024-01-27T10:00:13;6.07;;;5.13;;
67595;SDS011;54410;48.694;8.934;2024-01-27T10:02:42;7.43;;;5.83;;
67595;SDS011;54410;48.694;8.934;2024-01-27T10:05:08;6.50;;;5.60;;
67595;SDS011;54410;48.694;8.934;2024-01-27T10:07:34;8.77;;;6.10;;
67595;SDS011;54410;48.694;8.934;2024-01-27T10:10:00;7.93;;;7.00;;
67595;SDS011;54410;48.694;8.934;2024-01-27T10:12:26;8.37;;;7.17;;
67595;SDS011;54410;48.694;8.934;2024-01-27T10:14:54;7.10;;;6.23;;
67595;SDS011;54410;48.694;8.934;2024-01-27T10:17:20;9.63;;;7.10;;
67595;SDS011;54410;48.694;8.934;2024-01-27T10:20:02;9.20;;;7.57;;
67595;SDS011;54410;48.694;8.934;2024-01-27T10:22:29;10.00;;;6.80;;
67595;SDS011;54410;48.694;8.934;2024-01-27T10:24:55;8.03;;;6.80;;
67595;SDS011;54410;48.694;8.934;2024-01-27T10:27:23;9.80;;;7.70;;
67595;SDS011;54410;48.694;8.934;2024-01-27T10:29:52;8.40;;;7.07;;
67595;SDS011;54410;48.694;8.934;2024-01-27T10:32:21;11.73;;;6.17;;
67595;SDS011;54410;48.694;8.934;2024-01-27T10:35:00;13.33;;;7.97;;
67595;SDS011;54410;48.694;8.934;2024-01-27T10:37:35;10.43;;;7.43;;
67595;SDS011;54410;48.694;8.934;2024-01-27T10:40:06;9.30;;;6.53;;
67595;SDS011;54410;48.694;8.934;2024-01-27T10:42:33;12.03;;;6.53;;
67595;SDS011;54410;48.694;8.934;2024-01-27T10:45:00;11.43;;;7.40;;
67595;SDS011;54410;48.694;8.934;2024-01-27T10:47:29;13.37;;;7.23;;
67595;SDS011;54410;48.694;8.934;2024-01-27T10:49:56;11.73;;;7.17;;
67595;SDS011;54410;48.694;8.934;2024-01-27T10:52:24;9.40;;;6.70;;
67595;SDS011;54410;48.694;8.934;2024-01-27T10:55:00;15.67;;;8.53;;
67595;SDS011;54410;48.694;8.934;2024-01-27T10:57:28;13.23;;;6.53;;
67595;SDS011;54410;48.694;8.934;2024-01-27T10:59:54;13.07;;;7.87;;
67595;SDS011;54410;48.694;8.934;2024-01-27T11:02:21;15.70;;;9.53;;
67595;SDS011;54410;48.694;8.934;2024-01-27T11:04:47;10.23;;;7.40;;
67595;SDS011;54410;48.694;8.934;2024-01-27T11:07:14;17.20;;;11.70;;
67595;SDS011;54410;48.694;8.934;2024-01-27T11:09:40;13.20;;;7.03;;
67595;SDS011;54410;48.694;8.934;2024-01-27T11:12:07;8.13;;;6.97;;
67595;SDS011;54410;48.694;8.934;2024-01-27T11:14:33;9.80;;;7.10;;
67595;SDS011;54410;48.694;8.934;2024-01-27T11:16:59;10.80;;;7.53;;
67595;SDS011;54410;48.694;8.934;2024-01-27T11:19:25;10.40;;;7.93;;
67595;SDS011;54410;48.694;8.934;2024-01-27T11:22:03;10.60;;;6.97;;
67595;SDS011;54410;48.694;8.934;2024-01-27T11:24:29;12.63;;;7.40;;
67595;SDS011;54410;48.694;8.934;2024-01-27T11:27:04;9.13;;;6.87;;
67595;SDS011;54410;48.694;8.934;2024-01-27T11:29:31;11.30;;;7.97;;
67595;SDS011;54410;48.694;8.934;2024-01-27T11:31:59;14.07;;;7.23;;
67595;SDS011;54410;48.694;8.934;2024-01-27T11:34:27;9.73;;;6.43;;
67595;SDS011;54410;48.694;8.934;2024-01-27T11:36:53;10.67;;;6.30;;
67595;SDS011;54410;48.694;8.934;2024-01-27T11:39:26;8.30;;;5.93;;
67595;SDS011;54410;48.694;8.934;2024-01-27T11:41:52;14.37;;;6.50;;
67595;SDS011;54410;48.694;8.934;2024-01-27T11:44:21;7.70;;;5.70;;
67595;SDS011;54410;48.694;8.934;2024-01-27T11:46:47;9.30;;;5.67;;
67595;SDS011;54410;48.694;8.934;2024-01-27T11:49:15;6.47;;;5.07;;
67595;SDS011;54410;48.694;8.934;2024-01-27T11:51:44;8.83;;;5.53;;
67595;SDS011;54410;48.694;8.934;2024-01-27T11:54:10;11.50;;;5.43;;
67595;SDS011;54410;48.694;8.934;2024-01-27T11:56:37;9.47;;;5.40;;
67595;SDS011;54410;48.694;8.934;2024-01-27T11:59:03;8.80;;;6.00;;
67595;SDS011;54410;48.694;8.934;2024-01-27T12:01:29;11.07;;;7.10;;
67595;SDS011;54410;48.694;8.934;2024-01-27T12:03:54;7.87;;;6.30;;
67595;SDS011;54410;48.694;8.934;2024-01-27T12:06:20;9.10;;;5.80;;
67595;SDS011;54410;48.694;8.934;2024-01-27T12:08:47;9.67;;;6.03;;
67595;SDS011;54410;48.694;8.934;2024-01-27T12:11:13;10.93;;;6.60;;
67595;SDS011;54410;48.694;8.934;2024-01-27T12:13:39;7.13;;;5.30;;
67595;SDS011;54410;48.694;8.934;2024-01-27T12:16:05;7.70;;;5.47;;
67595;SDS011;54410;48.694;8.934;2024-01-27T12:18:31;8.60;;;5.30;;
67595;SDS011;54410;48.694;8.934;2024-01-27T12:20:57;7.13;;;5.13;;
67595;SDS011;54410;48.694;8.934;2024-01-27T12:23:23;8.20;;;4.73;;
67595;SDS011;54410;48.694;8.934;2024-01-27T12:25:53;8.30;;;4.93;;
67595;SDS011;54410;48.694;8.934;2024-01-27T12:28:20;6.50;;;4.80;;
67595;SDS011;54410;48.694;8.934;2024-01-27T12:30:48;7.90;;;5.23;;
67595;SDS011;54410;48.694;8.934;2024-01-27T12:33:15;6.77;;;5.10;;
67595;SDS011;54410;48.694;8.934;2024-01-27T12:35:44;9.13;;;5.97;;
67595;SDS011;54410;48.694;8.934;2024-01-27T12:38:10;8.67;;;5.00;;
67595;SDS011;54410;48.694;8.934;2024-01-27T12:40:37;11.43;;;5.00;;
67595;SDS011;54410;48.694;8.934;2024-01-27T12:43:03;7.13;;;4.40;;
67595;SDS011;54410;48.694;8.934;2024-01-27T12:45:29;8.27;;;4.30;;
67595;SDS011;54410;48.694;8.934;2024-01-27T12:47:55;6.43;;;4.60;;
67595;SDS011;54410;48.694;8.934;2024-01-27T12:50:21;10.23;;;4.00;;
67595;SDS011;54410;48.694;8.934;2024-01-27T12:52:47;4.13;;;3.77;;
67595;SDS011;54410;48.694;8.934;2024-01-27T12:55:13;3.77;;;3.33;;
67595;SDS011;54410;48.694;8.934;2024-01-27T12:57:39;5.47;;;3.30;;
67595;SDS011;54410;48.694;8.934;2024-01-27T13:00:06;4.30;;;3.90;;
67595;SDS011;54410;48.694;8.934;2024-01-27T13:02:35;4.57;;;3.43;;
67595;SDS011;54410;48.694;8.934;2024-01-27T13:05:02;5.23;;;3.50;;
67595;SDS011;54410;48.694;8.934;2024-01-27T13:07:28;8.00;;;3.67;;
67595;SDS011;54410;48.694;8.934;2024-01-27T13:09:55;6.50;;;2.97;;
67595;SDS011;54410;48.694;8.934;2024-01-27T13:12:21;3.97;;;3.20;;
67595;SDS011;54410;48.694;8.934;2024-01-27T13:14:47;3.50;;;3.20;;
67595;SDS011;54410;48.694;8.934;2024-01-27T13:17:14;3.63;;;3.00;;
67595;SDS011;54410;48.694;8.934;2024-01-27T13:19:40;4.37;;;2.87;;
67595;SDS011;54410;48.694;8.934;2024-01-27T13:22:07;4.40;;;3.10;;
67595;SDS011;54410;48.694;8.934;2024-01-27T13:24:34;4.07;;;3.53;;
67595;SDS011;54410;48.694;8.934;2024-01-27T13:27:00;5.37;;;3.23;;
67595;SDS011;54410;48.694;8.934;2024-01-27T13:29:26;6.43;;;4.20;;
67595;SDS011;54410;48.694;8.934;2024-01-27T13:31:52;7.17;;;3.33;;
67595;SDS011;54410;48.694;8.934;2024-01-27T13:34:18;8.00;;;3.40;;
67595;SDS011;54410;48.694;8.934;2024-01-27T13:36:44;7.07;;;3.87;;
67595;SDS011;54410;48.694;8.934;2024-01-27T13:39:10;3.63;;;3.27;;
67595;SDS011;54410;48.694;8.934;2024-01-27T13:41:36;3.00;;;2.80;;
67595;SDS011;54410;48.694;8.934;2024-01-27T13:44:02;4.10;;;3.13;;
67595;SDS011;54410;48.694;8.934;2024-01-27T13:46:28;3.10;;;2.90;;
67595;SDS011;54410;48.694;8.934;2024-01-27T13:48:54;3.87;;;3.03;;
67595;SDS011;54410;48.694;8.934;2024-01-27T13:51:20;3.23;;;2.90;;
67595;SDS011;54410;48.694;8.934;2024-01-27T13:53:47;5.83;;;2.70;;
67595;SDS011;54410;48.694;8.934;2024-01-27T13:56:13;6.10;;;3.27;;
67595;SDS011;54410;48.694;8.934;2024-01-27T13:58:40;5.33;;;3.13;;
67595;SDS011;54410;48.694;8.934;2024-01-27T14:01:06;6.63;;;3.20;;
67595;SDS011;54410;48.694;8.934;2024-01-27T14:03:31;2.90;;;2.70;;
67595;SDS011;54410;48.694;8.934;2024-01-27T14:05:57;4.80;;;2.90;;
67595;SDS011;54410;48.694;8.934;2024-01-27T14:08:23;3.40;;;3.10;;
67595;SDS011;54410;48.694;8.934;2024-01-27T14:10:49;4.13;;;3.10;;
67595;SDS011;54410;48.694;8.934;2024-01-27T14:13:17;3.27;;;2.67;;
67595;SDS011;54410;48.694;8.934;2024-01-27T14:15:43;4.27;;;3.07;;
67595;SDS011;54410;48.694;8.934;2024-01-27T14:18:09;5.47;;;3.10;;
67595;SDS011;54410;48.694;8.934;2024-01-27T14:20:39;3.90;;;2.97;;
67595;SDS011;54410;48.694;8.934;2024-01-27T14:23:04;3.80;;;3.00;;
67595;SDS011;54410;48.694;8.934;2024-01-27T14:25:30;3.60;;;3.30;;
67595;SDS011;54410;48.694;8.934;2024-01-27T14:27:56;4.33;;;3.00;;
67595;SDS011;54410;48.694;8.934;2024-01-27T14:30:22;6.07;;;3.20;;
67595;SDS011;54410;48.694;8.934;2024-01-27T14:32:48;3.73;;;3.07;;
67595;SDS011;54410;48.694;8.934;2024-01-27T14:35:14;3.63;;;3.13;;